Lima, Pennsylvania
Current Conditions -  °F | °C
As of 8:54 AM on Monday 20 Oct 2014 (Local Time) from KPHL Reporting Station
Broken Clouds Broken Clouds  
Wind Chill: 45°   Ceiling: 28000
Heat Index: 45°   Visibility: 10mi
Dew Point: 32°   Wind: 3mph
Humidity: 60%   Direction: 220°SW
Pressure: 30.15"   Gusts: NA
Location:  39.9164°N, 75.3884°W
Report Text: KPHL 201254Z 22003KT 10SM FEW180 BKN280 07/00 A3015 RMK AO2 SLP208 T00720000
Loading
Personal Weather Stations






























Interactive Weather Map
Tropical Storm Tracking
New forecast layout! Learn more

10-Day Weather Forecast

Advertisements
Track Severe Weather on mobile